sensor_id;sensor_type;location;lat;lon;timestamp;pressure;altitude;pressure_sealevel;temperature;humidity
51315;BME280;65787;59.922;10.742;2023-02-28T21:09:29;102441.97;;;24.79;31.00
51315;BME280;65787;59.922;10.742;2023-02-28T21:11:54;102444.75;;;25.60;29.79
51315;BME280;65787;59.922;10.742;2023-02-28T21:14:20;102442.63;;;26.08;30.09
51315;BME280;65787;59.922;10.742;2023-02-28T21:16:45;102439.81;;;26.59;30.16
51315;BME280;65787;59.922;10.742;2023-02-28T21:19:11;102438.19;;;26.80;29.91
51315;BME280;65787;59.922;10.742;2023-02-28T21:21:40;102447.38;;;27.08;29.64
51315;BME280;65787;59.922;10.742;2023-02-28T21:24:18;102431.03;;;27.01;29.40
51315;BME280;65787;59.922;10.742;2023-02-28T21:26:45;102446.75;;;27.45;29.01
51315;BME280;65787;59.922;10.742;2023-02-28T21:29:12;102440.88;;;27.63;28.41
51315;BME280;65787;59.922;10.742;2023-02-28T21:31:38;102453.94;;;27.73;28.43
51315;BME280;65787;59.922;10.742;2023-02-28T21:34:05;102450.34;;;27.72;28.21
51315;BME280;65787;59.922;10.742;2023-02-28T21:36:35;102438.72;;;27.70;28.27
51315;BME280;65787;59.922;10.742;2023-02-28T21:39:10;102450.09;;;27.74;28.08
51315;BME280;65787;59.922;10.742;2023-02-28T21:41:36;102446.06;;;27.87;27.70
51315;BME280;65787;59.922;10.742;2023-02-28T21:44:02;102463.59;;;27.97;27.57
51315;BME280;65787;59.922;10.742;2023-02-28T21:46:29;102446.72;;;27.94;27.31
51315;BME280;65787;59.922;10.742;2023-02-28T21:48:55;102463.09;;;28.06;27.05
51315;BME280;65787;59.922;10.742;2023-02-28T21:51:27;102474.56;;;28.19;27.21
51315;BME280;65787;59.922;10.742;2023-02-28T21:53:53;102477.63;;;28.23;26.66
51315;BME280;65787;59.922;10.742;2023-02-28T21:56:21;102474.81;;;28.18;26.66
51315;BME280;65787;59.922;10.742;2023-02-28T21:58:47;102483.72;;;28.25;26.56
51315;BME280;65787;59.922;10.742;2023-02-28T22:01:20;102485.41;;;28.31;26.66
51315;BME280;65787;59.922;10.742;2023-02-28T22:03:47;102484.56;;;28.26;26.46
51315;BME280;65787;59.922;10.742;2023-02-28T22:06:19;102485.31;;;28.21;26.40
51315;BME280;65787;59.922;10.742;2023-02-28T22:08:48;102489.19;;;28.20;26.37
51315;BME280;65787;59.922;10.742;2023-02-28T22:11:15;102496.16;;;28.28;26.12
51315;BME280;65787;59.922;10.742;2023-02-28T22:13:40;102486.28;;;28.37;25.62
51315;BME280;65787;59.922;10.742;2023-02-28T22:16:09;102491.69;;;28.54;25.66
51315;BME280;65787;59.922;10.742;2023-02-28T22:18:36;102505.13;;;28.40;26.09
51315;BME280;65787;59.922;10.742;2023-02-28T22:21:02;102503.63;;;28.27;25.76
51315;BME280;65787;59.922;10.742;2023-02-28T22:23:28;102503.03;;;28.20;25.83
51315;BME280;65787;59.922;10.742;2023-02-28T22:25:54;102496.88;;;28.13;25.90
51315;BME280;65787;59.922;10.742;2023-02-28T22:28:21;102509.50;;;28.36;25.81
51315;BME280;65787;59.922;10.742;2023-02-28T22:30:48;102516.19;;;28.45;25.36
51315;BME280;65787;59.922;10.742;2023-02-28T22:33:15;102500.38;;;28.35;25.48
51315;BME280;65787;59.922;10.742;2023-02-28T22:35:41;102518.44;;;28.48;25.34
51315;BME280;65787;59.922;10.742;2023-02-28T22:38:08;102500.88;;;28.32;25.47
51315;BME280;65787;59.922;10.742;2023-02-28T22:40:35;102510.59;;;28.35;25.20
51315;BME280;65787;59.922;10.742;2023-02-28T22:43:00;102490.59;;;28.23;25.30
51315;BME280;65787;59.922;10.742;2023-02-28T22:45:26;102512.59;;;28.45;25.14
51315;BME280;65787;59.922;10.742;2023-02-28T22:47:51;102515.41;;;28.50;25.13
51315;BME280;65787;59.922;10.742;2023-02-28T22:50:17;102514.94;;;28.58;24.69
51315;BME280;65787;59.922;10.742;2023-02-28T22:52:42;102508.31;;;28.59;25.11
51315;BME280;65787;59.922;10.742;2023-02-28T22:55:08;102523.66;;;28.45;25.11
51315;BME280;65787;59.922;10.742;2023-02-28T22:57:35;102520.47;;;28.58;24.71
51315;BME280;65787;59.922;10.742;2023-02-28T23:00:03;102520.72;;;28.56;24.74
51315;BME280;65787;59.922;10.742;2023-02-28T23:02:31;102518.25;;;28.55;24.64
51315;BME280;65787;59.922;10.742;2023-02-28T23:04:56;102508.41;;;28.37;24.46
51315;BME280;65787;59.922;10.742;2023-02-28T23:07:22;102534.47;;;28.46;24.77
51315;BME280;65787;59.922;10.742;2023-02-28T23:09:48;102525.28;;;28.41;24.52
51315;BME280;65787;59.922;10.742;2023-02-28T23:12:16;102538.53;;;28.38;24.51
51315;BME280;65787;59.922;10.742;2023-02-28T23:14:42;102537.19;;;28.41;24.44
51315;BME280;65787;59.922;10.742;2023-02-28T23:17:07;102539.56;;;28.27;24.71
51315;BME280;65787;59.922;10.742;2023-02-28T23:19:32;102526.47;;;28.17;24.49
51315;BME280;65787;59.922;10.742;2023-02-28T23:21:59;102531.16;;;28.17;24.84
51315;BME280;65787;59.922;10.742;2023-02-28T23:24:27;102534.91;;;28.33;24.50
51315;BME280;65787;59.922;10.742;2023-02-28T23:26:55;102541.06;;;28.40;24.25
51315;BME280;65787;59.922;10.742;2023-02-28T23:29:22;102527.69;;;28.32;24.24
51315;BME280;65787;59.922;10.742;2023-02-28T23:31:49;102531.03;;;28.34;24.30
51315;BME280;65787;59.922;10.742;2023-02-28T23:34:15;102526.81;;;28.26;24.63
51315;BME280;65787;59.922;10.742;2023-02-28T23:36:41;102542.28;;;28.22;24.36
51315;BME280;65787;59.922;10.742;2023-02-28T23:39:10;102532.28;;;28.21;24.29
51315;BME280;65787;59.922;10.742;2023-02-28T23:41:36;102544.53;;;28.25;24.33
51315;BME280;65787;59.922;10.742;2023-02-28T23:44:01;102548.78;;;28.43;23.79
51315;BME280;65787;59.922;10.742;2023-02-28T23:46:28;102542.69;;;28.41;24.07
51315;BME280;65787;59.922;10.742;2023-02-28T23:48:53;102550.75;;;28.43;24.27
51315;BME280;65787;59.922;10.742;2023-02-28T23:51:20;102541.81;;;28.35;24.14
